Terminal Aerodrome Forecast
Issued by NWS

Home | Current Version | Previous Version | Graphics & Text | Print | Product List | Glossary On
Versions: 1 2 3 4 5 6 7 8 9 10 11 12 13 14 15
000
FTUS43 KMPX 230520
TAFAXN
TAF
KAXN 230520Z 2306/2406 34005KT P6SM SCT090
     FM231300 32008KT P6SM BKN020
     FM232000 35010KT P6SM SCT030 BKN050
     FM232300 03006KT P6SM SCT090=

USA.gov is the U.S. government's official web portal to all federal, state and local government web resources and services.